St Thomas, Virgin Islands
Current Conditions -  °F | °C
As of 5:00 PM on Friday 31 Oct 2014 (Local Time) from TUPJ Reporting Station
Scattered Clouds Scattered Clouds  
Wind Chill: 29°   Ceiling: Unl
Heat Index: 34°   Visibility: 6mi
Dew Point: 24°   Wind: 8mph
Humidity: 74%   Direction: 180°S
Pressure: 29.88"   Gusts: NA
Location:  18.3436°N, 64.9322°W
Report Text: TUPJ 312100Z 18007KT 9999 SCT019 SCT220 29/24 Q1012 RMK A2988
Loading
Personal Weather Stations






























Interactive Weather Map
Tropical Storm Tracking
New forecast layout! Learn more

10-Day Weather Forecast

Advertisements
Track Severe Weather on mobile